Flight Track Log - Related Links

Times and Time Zones

All times are in EDT time to prevent confusion due to time zone crossing. See the EGF2935 flight status page for this flight to view local times or setup timezone preferences in your user account.

Time Position Orientation Groundspeed Altitude Reporting Facility
EDT Latitude Longitude Course Direction KTS MPH feet Rate Location/Type
Thu 07:35:12 AM 43.1606 -89.4242 209° Southwest 245 282 4,100  Level Chicago Center
Thu 07:36:00 AM 42.8676 -89.4990 216° Southwest  Level FlightAware Approximate
Thu 07:36:13 AM 43.1047 -89.4603 205° Southwest 227 261 6,400  Level Chicago Center
Thu 07:37:00 AM 42.7761 -89.5453 200° South  Level FlightAware Approximate
Thu 07:37:14 AM 43.0439 -89.4969 204° Southwest 235 270 8,500  Level Chicago Center
Thu 07:38:00 AM 42.6879 -89.6026 206° Southwest  Level FlightAware Approximate
Thu 07:38:16 AM 42.9769 -89.5353 203° Southwest 253 291 10,100  Level Chicago Center
Thu 07:39:00 AM 42.5994 -89.6586 200° South  Level FlightAware Approximate
Thu 07:39:17 AM 42.9022 -89.5792 203° Southwest 286 329 11,100  Level Chicago Center
Thu 07:40:00 AM 42.5027 -89.7105 209° Southwest  Level FlightAware Approximate
Thu 07:40:19 AM 42.8219 -89.6267 203° Southwest 311 358 12,400  Level Chicago Center
Thu 07:41:20 AM 42.7283 -89.6875 206° Southwest 318 366 14,500 1,707 Climbing Chicago Center
Thu 07:42:22 AM 42.6536 -89.7461 210° Southwest 312 359 15,900 1,268 Climbing Chicago Center
Thu 07:43:23 AM 42.5794 -89.8022 209° Southwest 306 352 17,100 1,073 Climbing Chicago Center
Thu 07:44:25 AM 42.5031 -89.8608 210° Southwest 312 359 18,100 1,024 Climbing Chicago Center
Thu 07:45:26 AM 42.4294 -89.9150 209° Southwest 325 374 19,200 1,122 Climbing Chicago Center
Thu 07:46:28 AM 42.3503 -89.9750 209° Southwest 327 376 20,400 1,415 Climbing Chicago Center
Thu 07:47:29 AM 42.2511 -90.0511 210° Southwest 340 391 22,100 1,967 Climbing Chicago Center
Thu 07:48:30 AM 42.1731 -90.1083 209° Southwest 324 373 24,400 1,756 Climbing Chicago Center
Thu 07:49:32 AM 42.1000 -90.1628 209° Southwest 305 351 25,700 1,122 Climbing Chicago Center
Thu 07:50:33 AM 42.0239 -90.2189 209° Southwest 312 359 26,700 976 Climbing Chicago Center
Thu 07:51:35 AM 41.9472 -90.2756 209° Southwest 314 361 27,700 976 Climbing Chicago Center
Thu 07:52:36 AM 41.8656 -90.3356 209° Southwest 325 374 28,700 976 Climbing Chicago Center
Thu 07:53:38 AM 41.7828 -90.3983 209° Southwest 336 387 29,700 1,073 Climbing Chicago Center
Thu 07:54:39 AM 41.6833 -90.4722 209° Southwest 341 392 30,900 1,057 Climbing Chicago Center
Thu 07:56:17 AM 41.5500 -90.5692 209° Southwest 342 394 32,500 981 Climbing Kansas City Center
Thu 07:57:18 AM 41.4658 -90.6306 209° Southwest 345 397 33,500 738 Climbing Kansas City Center
Thu 07:58:19 AM 41.3817 -90.6922 209° Southwest 346 398 34,000 341 Climbing Kansas City Center
Thu 07:58:46 AM 41.3472 -90.7169 208° Southwest 350 403 34,000  Level Chicago Center
Thu 07:59:47 AM 41.2564 -90.7819 208° Southwest 367 422 34,000  Level Chicago Center
Thu 08:00:49 AM 41.1589 -90.8525 209° Southwest 393 452 34,000  Level Chicago Center
Thu 08:01:50 AM 41.0389 -90.9381 208° Southwest 408 470 34,000  Level Chicago Center
Thu 08:02:52 AM 40.9383 -91.0108 209° Southwest 413 475 34,000  Level Chicago Center
Thu 08:03:53 AM 40.8367 -91.0839 209° Southwest 415 478 34,000  Level Chicago Center
Thu 08:04:55 AM 40.7364 -91.1550 208° Southwest 412 474 34,000  Level Chicago Center
Thu 08:05:57 AM 40.6356 -91.2267 208° Southwest 411 473 34,000  Level Chicago Center
Thu 08:06:58 AM 40.5283 -91.3019 208° Southwest 413 475 34,000  Level Chicago Center
Thu 08:08:00 AM 40.4264 -91.3731 208° Southwest 415 478 34,000  Level Chicago Center
Thu 08:08:29 AM 40.3639 -91.4153 207° Southwest 414 476 34,000  Level Kansas City Center
Thu 08:09:30 AM 40.2633 -91.4869 209° Southwest 414 476 34,000  Level Kansas City Center
Thu 08:10:31 AM 40.1608 -91.5578 208° Southwest 416 479 34,000  Level Kansas City Center
Thu 08:11:32 AM 40.0597 -91.6300 209° Southwest 415 478 34,000  Level Kansas City Center
Thu 08:12:33 AM 39.9567 -91.7006 208° Southwest 417 480 34,000  Level Kansas City Center
Thu 08:13:34 AM 39.8556 -91.7703 208° Southwest 415 478 34,000  Level Kansas City Center
Thu 08:14:35 AM 39.7536 -91.8408 208° Southwest 415 478 34,000  Level Kansas City Center
Thu 08:15:36 AM 39.6506 -91.9117 208° Southwest 417 480 34,000  Level Kansas City Center
Thu 08:16:37 AM 39.5503 -91.9800 208° Southwest 413 475 34,000  Level Kansas City Center
Thu 08:17:38 AM 39.4489 -92.0481 207° Southwest 411 473 34,000  Level Kansas City Center
Thu 08:18:39 AM 39.3478 -92.1169 208° Southwest 412 474 34,000  Level Kansas City Center
Thu 08:19:40 AM 39.2428 -92.1875 207° Southwest 413 475 34,000  Level Kansas City Center
Thu 08:20:41 AM 39.1192 -92.2700 207° Southwest 414 476 34,000  Level Kansas City Center
Thu 08:21:43 AM 39.0167 -92.3392 208° Southwest 416 479 34,000  Level Kansas City Center
Thu 08:22:44 AM 38.9144 -92.4081 208° Southwest 414 476 34,000  Level Kansas City Center
Thu 08:23:45 AM 38.8117 -92.4756 207° Southwest 414 476 34,000  Level Kansas City Center
Thu 08:24:46 AM 38.7092 -92.5456 208° Southwest 417 480 34,000  Level Kansas City Center
Thu 08:25:47 AM 38.6067 -92.6142 208° Southwest 416 479 34,000  Level Kansas City Center
Thu 08:26:48 AM 38.5044 -92.6811 207° Southwest 415 478 34,000  Level Kansas City Center
Thu 08:27:50 AM 38.4006 -92.7503 208° Southwest 418 481 34,000  Level Kansas City Center
Thu 08:28:51 AM 38.2981 -92.8172 207° Southwest 417 480 34,000  Level Kansas City Center
Thu 08:29:52 AM 38.1958 -92.8831 207° Southwest 415 478 34,000  Level Kansas City Center
Thu 08:30:53 AM 38.0939 -92.9511 208° Southwest 415 478 34,000  Level Kansas City Center
Thu 08:31:54 AM 37.9697 -93.0311 207° Southwest 416 479 34,000  Level Kansas City Center
Thu 08:32:56 AM 37.8681 -93.0978 207° Southwest 415 478 34,000  Level Kansas City Center
Thu 08:33:57 AM 37.7653 -93.1633 207° Southwest 413 475 34,000  Level Kansas City Center
Thu 08:34:58 AM 37.6617 -93.2300 207° Southwest 417 480 34,000  Level Kansas City Center
Thu 08:35:59 AM 37.5572 -93.2967 207° Southwest 419 482 34,000  Level Kansas City Center
Thu 08:37:01 AM 37.4542 -93.3631 207° Southwest 417 480 34,000  Level Kansas City Center
Thu 08:38:02 AM 37.3500 -93.4306 207° Southwest 420 483 34,000  Level Kansas City Center
Thu 08:39:03 AM 37.2472 -93.4950 207° Southwest 414 476 34,000  Level Kansas City Center
Thu 08:40:05 AM 37.1436 -93.5614 207° Southwest 416 479 34,000  Level Kansas City Center
Thu 08:41:06 AM 37.0389 -93.6278 207° Southwest 418 481 34,000  Level Kansas City Center
Thu 08:42:07 AM 36.9144 -93.7067 207° Southwest 418 481 34,000  Level Kansas City Center
Thu 08:43:09 AM 36.8236 -93.7611 206° Southwest 427 491 34,000  Level Kansas City Center
Thu 08:44:10 AM 36.7186 -93.8267 207° Southwest 422 486 34,000  Level Kansas City Center
Thu 08:45:11 AM 36.5925 -93.9050 207° Southwest 420 483 34,000  Level Kansas City Center
Thu 08:46:13 AM 36.4822 -93.9569 201° Southwest 422 486 34,000  Level Kansas City Center
Thu 08:47:14 AM 36.3722 -94.0128 202° Southwest 424 488 34,000  Level Kansas City Center
Thu 08:47:32 AM 36.3422 -94.0283 203° Southwest 427 491 34,000  Level Memphis Center
Thu 08:48:32 AM 36.2344 -94.0828 202° Southwest 421 484 34,000  Level Memphis Center
Thu 08:49:32 AM 36.1244 -94.1342 201° Southwest 421 484 34,000  Level Memphis Center
Thu 08:50:32 AM 36.0164 -94.1908 203° Southwest 421 484 34,000  Level Memphis Center
Thu 08:51:32 AM 35.9061 -94.2447 202° Southwest 421 484 34,000  Level Memphis Center
Thu 08:52:32 AM 35.7983 -94.2983 202° Southwest 421 484 34,000  Level Memphis Center
Thu 08:53:32 AM 35.6881 -94.3519 202° Southwest 421 484 34,000  Level Memphis Center
Thu 08:54:32 AM 35.5756 -94.4106 203° Southwest 421 484 34,000  Level Memphis Center
Thu 08:55:32 AM 35.4675 -94.4611 201° Southwest 421 484 34,000  Level Memphis Center
Thu 08:56:32 AM 35.3553 -94.5169 202° Southwest 426 490 34,000  Level Memphis Center
Thu 08:57:32 AM 35.2364 -94.5744 202° Southwest 426 490 34,000  Level Memphis Center
Thu 08:58:32 AM 35.1261 -94.6300 202° Southwest 426 490 34,000  Level Memphis Center
Thu 08:59:15 AM 35.0447 -94.6697 202° Southwest 425 489 34,000  Level Fort Worth Center
Thu 09:00:15 AM 34.9483 -94.7539 216° Southwest 420 483 34,000  Level Fort Worth Center
Thu 09:01:15 AM 34.8728 -94.8297 219° Southwest 412 474 34,000  Level Fort Worth Center
Thu 09:02:15 AM 34.7892 -94.9206 222° Southwest 412 474 34,000 -450 Level Fort Worth Center
Thu 09:03:15 AM 34.7053 -95.0114 222° Southwest 412 474 33,100 -1,200 Descending Fort Worth Center
Thu 09:04:15 AM 34.6236 -95.0994 222° Southwest 406 467 31,600 -1,050 Descending Fort Worth Center
Thu 09:05:15 AM 34.5439 -95.1850 221° Southwest 406 467 31,000 -700 Descending Fort Worth Center
Thu 09:06:15 AM 34.4597 -95.2728 221° Southwest 401 461 30,200 -1,200 Descending Fort Worth Center
Thu 09:07:15 AM 34.3756 -95.3603 221° Southwest 401 461 28,600 -1,550 Descending Fort Worth Center
Thu 09:08:15 AM 34.2956 -95.4453 221° Southwest 401 461 27,100 -1,550 Descending Fort Worth Center
Thu 09:09:15 AM 34.2178 -95.5272 221° Southwest 396 456 25,500 -1,550 Descending Fort Worth Center
Thu 09:10:15 AM 34.1292 -95.6169 220° Southwest 390 449 24,000 -750 Descending Fort Worth Center
Thu 09:11:15 AM 34.0594 -95.6911 221° Southwest 384 442 24,000  Level Fort Worth Center
Thu 09:12:15 AM 33.9728 -95.7806 221° Southwest 390 449 24,000  Level Fort Worth Center
Thu 09:13:15 AM 33.8947 -95.8644 222° Southwest 390 449 24,000  Level Fort Worth Center
Thu 09:14:15 AM 33.8100 -95.9486 220° Southwest 389 448 24,000 -850 Level Fort Worth Center
Thu 09:15:15 AM 33.7233 -96.0400 221° Southwest 384 442 22,300 -1,750 Descending Fort Worth Center
Thu 09:16:15 AM 33.6511 -96.1158 221° Southwest 379 436 20,500 -1,950 Descending Fort Worth Center
Thu 09:17:15 AM 33.5625 -96.2069 221° Southwest 384 442 18,400 -1,850 Descending Fort Worth Center
Thu 09:18:15 AM 33.4983 -96.2800 224° Southwest 376 433 16,800 -1,750 Descending Fort Worth Center
Thu 09:19:15 AM 33.4239 -96.3706 225° Southwest 360 414 14,900 -1,750 Descending Fort Worth Center
Thu 09:20:15 AM 33.3600 -96.4483 225° Southwest 355 409 13,300 -1,650 Descending Fort Worth Center
Thu 09:21:15 AM 33.2875 -96.5336 225° Southwest 350 403 11,600 -1,150 Descending Fort Worth Center
Thu 09:22:15 AM 33.2275 -96.6064 225° Southwest 326 375 11,000 -300 Descending Fort Worth Center
Thu 09:23:15 AM 33.1736 -96.6714 225° Southwest 303 349 11,000  Level Fort Worth Center
Thu 09:24:15 AM 33.1114 -96.7464 225° Southwest 303 349 11,000  Level Fort Worth Center
Thu 09:24:38 AM 33.0833 -96.7667 211° Southwest 291 335 11,000  Level Dallas / Fort Worth TRACON
Thu 09:25:32 AM 33.0333 -96.8333 228° Southwest 292 336 11,000  Level Dallas / Fort Worth TRACON
Thu 09:26:38 AM 32.9833 -96.9000 228° Southwest 244 281 11,000 -333 Level Dallas / Fort Worth TRACON
Thu 09:27:38 AM 32.9000 -96.9000 180° South 253 291 10,300 -1,100 Descending Dallas / Fort Worth TRACON
Thu 09:28:38 AM 32.8333 -96.9000 180° South 251 289 8,800 -1,150 Descending Dallas / Fort Worth TRACON
Thu 09:29:38 AM 32.7667 -96.9000 180° South 250 288 8,000 -400 Descending Dallas / Fort Worth TRACON
Thu 09:30:38 AM 32.7000 -96.9000 180° South 246 283 8,000 -550 Level Dallas / Fort Worth TRACON
Thu 09:31:38 AM 32.6333 -96.9000 180° South 243 280 6,900 -1,263 Descending Dallas / Fort Worth TRACON
Thu 09:32:32 AM 32.5833 -96.9667 228° Southwest 238 274 5,600 -1,050 Descending Dallas / Fort Worth TRACON
Thu 09:33:38 AM 32.6000 -97.0167 292° West 177 204 4,800 -714 Descending Dallas / Fort Worth TRACON
Thu 09:34:38 AM 32.6333 -97.0500 320° Northwest 170 196 4,100 -700 Descending Dallas / Fort Worth TRACON
Thu 09:35:38 AM 32.6833 -97.0500 360° North 146 168 3,400 -550 Descending Dallas / Fort Worth TRACON
Thu 09:36:38 AM 32.7167 -97.0500 360° North 133 153 3,000 -200 Descending Dallas / Fort Worth TRACON
Thu 09:37:38 AM 32.7500 -97.0500 360° North 123 142 3,000  Level Dallas / Fort Worth TRACON

Login

Don't have an account? Register now (free) for customized features, flight alerts, and more!